createdAt,value
2018-11-20T18:22:13.701Z,72.71
2018-11-20T18:23:13.624Z,72.91
2018-11-20T18:24:13.612Z,72.91
2018-11-20T18:25:13.993Z,72.91
2018-11-20T18:26:13.589Z,72.71
2018-11-20T18:27:18.677Z,72.91
2018-11-20T18:28:13.568Z,72.39
2018-11-20T18:29:13.562Z,72.50
2018-11-20T18:30:13.554Z,72.71
2018-11-20T18:31:13.602Z,72.60
2018-11-20T18:32:13.550Z,72.60
2018-11-20T18:33:13.519Z,71.94
2018-11-20T18:34:13.505Z,72.36
2018-11-20T18:35:13.496Z,72.25
2018-11-20T18:36:13.556Z,72.29
2018-11-20T18:37:13.476Z,72.29
2018-11-20T18:38:13.463Z,72.39
2018-11-20T18:39:13.456Z,72.50
2018-11-20T18:40:13.443Z,72.50
2018-11-20T18:41:13.434Z,72.50
2018-11-20T18:42:14.226Z,72.60
2018-11-20T18:43:13.412Z,72.39
2018-11-20T18:44:13.401Z,72.39
2018-11-20T18:45:13.390Z,72.60
2018-11-20T18:46:13.383Z,72.60
2018-11-20T18:47:13.435Z,72.60
2018-11-20T18:48:13.365Z,72.74
2018-11-20T18:49:13.348Z,72.94
2018-11-20T18:50:13.341Z,73.15
2018-11-20T18:51:13.327Z,72.94
2018-11-20T18:52:13.389Z,72.94
2018-11-20T18:53:13.303Z,73.15
2018-11-20T18:54:13.294Z,73.15
2018-11-20T18:55:13.282Z,73.15
2018-11-20T18:56:13.271Z,73.05
2018-11-20T18:57:13.267Z,73.15
2018-11-20T18:58:13.316Z,73.15
2018-11-20T18:59:13.266Z,73.15
2018-11-20T19:00:13.231Z,73.46
2018-11-20T19:01:13.235Z,73.46
2018-11-20T19:02:13.211Z,73.36
2018-11-20T19:03:13.727Z,73.46
2018-11-20T19:04:13.184Z,73.46
2018-11-20T19:05:13.174Z,73.57
2018-11-20T19:06:13.166Z,73.70
2018-11-20T19:07:13.159Z,73.57
2018-11-20T19:08:13.227Z,73.67
2018-11-20T19:09:13.139Z,73.46
2018-11-20T19:10:13.121Z,73.60
2018-11-20T19:11:13.119Z,73.80
2018-11-20T19:12:13.121Z,73.80
2018-11-20T19:13:13.165Z,73.91
2018-11-20T19:14:13.099Z,73.80
2018-11-20T19:15:13.067Z,73.80
2018-11-20T19:16:13.060Z,73.80
2018-11-20T19:17:13.050Z,73.80
2018-11-20T19:18:13.102Z,74.11
2018-11-20T19:19:13.029Z,74.11
2018-11-20T19:20:13.017Z,74.11
2018-11-20T19:21:13.011Z,74.22
2018-11-20T19:22:12.999Z,74.22
2018-11-20T19:23:13.395Z,74.01
2018-11-20T19:24:13.224Z,74.11
2018-11-20T19:25:12.977Z,74.01
2018-11-20T19:26:12.962Z,74.32
2018-11-20T19:27:12.955Z,73.91
2018-11-20T19:28:12.930Z,73.91
2018-11-20T19:29:12.988Z,74.43
2018-11-20T19:30:12.912Z,74.11
2018-11-20T19:31:12.905Z,74.11
2018-11-20T19:32:12.916Z,74.11
2018-11-20T19:33:12.890Z,74.29
2018-11-20T19:34:12.934Z,74.11
2018-11-20T19:35:12.860Z,74.43
2018-11-20T19:36:12.850Z,74.74
2018-11-20T19:37:12.838Z,75.05
2018-11-20T19:38:12.826Z,74.53
2018-11-20T19:39:12.888Z,74.74
2018-11-20T19:40:12.807Z,74.84
2018-11-20T19:41:12.800Z,75.05
2018-11-20T19:42:12.795Z,75.15
2018-11-20T19:43:12.776Z,75.50
2018-11-20T19:44:12.769Z,74.95
2018-11-20T19:45:13.217Z,74.95
2018-11-20T19:46:12.742Z,75.26
2018-11-20T19:47:12.737Z,75.36
2018-11-20T19:48:12.719Z,75.05
2018-11-20T19:49:12.710Z,75.26
2018-11-20T19:50:12.778Z,75.60
2018-11-20T19:51:12.690Z,75.50
2018-11-20T19:52:12.691Z,75.09
2018-11-20T19:53:12.674Z,75.40
2018-11-20T19:54:12.656Z,75.81
2018-11-20T19:55:12.647Z,75.60
2018-11-20T19:56:12.706Z,75.19
2018-11-20T19:57:12.627Z,75.71
2018-11-20T19:58:12.621Z,75.50
2018-11-20T19:59:12.615Z,75.57
2018-11-20T20:00:12.594Z,75.81
2018-11-20T20:01:12.643Z,75.40
2018-11-20T20:02:12.573Z,75.67
2018-11-20T20:03:12.565Z,75.50
2018-11-20T20:04:12.552Z,75.60
2018-11-20T20:05:12.540Z,75.88
2018-11-20T20:06:12.724Z,75.71
2018-11-20T20:07:12.522Z,75.36
2018-11-20T20:08:12.540Z,75.67
2018-11-20T20:09:12.501Z,75.36
2018-11-20T20:10:17.638Z,75.36
2018-11-20T20:11:12.552Z,75.36
2018-11-20T20:12:12.465Z,75.57
2018-11-20T20:13:12.460Z,75.57
2018-11-20T20:14:12.447Z,75.60
2018-11-20T20:15:12.439Z,75.29
2018-11-20T20:16:12.445Z,75.40
2018-11-20T20:17:12.479Z,75.36
2018-11-20T20:18:12.403Z,75.81
2018-11-20T20:19:12.404Z,75.57
2018-11-20T20:20:12.382Z,75.78
2018-11-20T20:21:12.371Z,75.46
2018-11-20T20:22:12.427Z,75.36
2018-11-20T20:23:12.349Z,75.67
2018-11-20T20:24:12.342Z,75.67
2018-11-20T20:25:12.329Z,75.26
2018-11-20T20:26:12.325Z,74.95
2018-11-20T20:27:13.143Z,75.57
2018-11-20T20:28:12.357Z,75.36
2018-11-20T20:29:12.287Z,75.19
2018-11-20T20:30:12.277Z,75.36
2018-11-20T20:31:12.264Z,76.23
2018-11-20T20:32:12.299Z,75.15
2018-11-20T20:33:12.319Z,75.98
2018-11-20T20:34:12.269Z,75.40
2018-11-20T20:35:12.224Z,75.81
2018-11-20T20:36:12.213Z,75.60
2018-11-20T20:37:12.208Z,75.40
2018-11-20T20:38:12.263Z,75.71
2018-11-20T20:39:12.188Z,75.78
2018-11-20T20:40:12.173Z,75.92
2018-11-20T20:41:12.161Z,75.50
2018-11-20T20:42:12.170Z,75.29
2018-11-20T20:43:12.138Z,75.81
2018-11-20T20:44:12.195Z,75.40
2018-11-20T20:45:12.118Z,75.71
2018-11-20T20:46:12.105Z,75.29
2018-11-20T20:47:12.119Z,75.92
2018-11-20T20:48:12.646Z,76.02
2018-11-20T20:49:12.131Z,75.92
2018-11-20T20:50:12.063Z,75.29
2018-11-20T20:51:12.054Z,75.50
2018-11-20T20:52:12.043Z,75.40
2018-11-20T20:53:12.050Z,75.60
2018-11-20T20:54:12.635Z,75.60
2018-11-20T20:55:12.009Z,75.81
2018-11-20T20:56:12.005Z,75.60
2018-11-20T20:57:12.000Z,75.36
2018-11-20T20:58:11.979Z,75.92
2018-11-20T20:59:12.040Z,75.98
2018-11-20T21:00:11.958Z,75.67
2018-11-20T21:01:11.945Z,75.98
2018-11-20T21:02:11.936Z,75.36
2018-11-20T21:03:12.639Z,75.98
2018-11-20T21:04:11.922Z,76.09
2018-11-20T21:05:11.972Z,75.57
2018-11-20T21:06:11.894Z,75.05
2018-11-20T21:07:11.885Z,75.74
2018-11-20T21:08:11.870Z,75.98
2018-11-20T21:09:12.629Z,75.78
2018-11-20T21:10:11.938Z,75.67
2018-11-20T21:11:11.842Z,75.88
2018-11-20T21:12:11.832Z,75.57
2018-11-20T21:13:11.822Z,75.88
2018-11-20T21:14:11.807Z,75.53
2018-11-20T21:15:11.795Z,75.43
2018-11-20T21:16:11.858Z,75.12
2018-11-20T21:17:11.781Z,74.91
2018-11-20T21:18:11.766Z,75.53
2018-11-20T21:19:11.757Z,75.12
2018-11-20T21:20:11.745Z,75.32
2018-11-20T21:21:15.630Z,74.91
2018-11-20T21:22:11.721Z,74.81
2018-11-20T21:23:11.717Z,75.12
2018-11-20T21:24:11.703Z,74.91
2018-11-20T21:25:11.715Z,74.91
2018-11-20T21:26:11.746Z,74.91
2018-11-20T21:27:11.670Z,75.12
2018-11-20T21:28:11.659Z,74.81
2018-11-20T21:29:11.649Z,74.71
2018-11-20T21:30:12.635Z,74.50
2018-11-20T21:31:11.690Z,74.57
2018-11-20T21:32:11.617Z,74.98
2018-11-20T21:33:11.613Z,74.50
2018-11-20T21:34:11.596Z,75.22
2018-11-20T21:35:11.610Z,74.60
2018-11-20T21:36:11.654Z,75.12
2018-11-20T21:37:11.567Z,74.91
2018-11-20T21:38:11.553Z,74.50
2018-11-20T21:39:11.542Z,74.81
2018-11-20T21:40:11.549Z,74.50
2018-11-20T21:41:11.594Z,75.12
2018-11-20T21:42:11.514Z,74.46
2018-11-20T21:43:11.503Z,74.71
2018-11-20T21:44:11.489Z,74.77
2018-11-20T21:45:15.575Z,74.91
2018-11-20T21:46:11.468Z,74.46
2018-11-20T21:47:11.524Z,75.02
2018-11-20T21:48:11.447Z,74.60
2018-11-20T21:49:11.444Z,74.29
2018-11-20T21:50:11.426Z,74.91
2018-11-20T21:51:12.126Z,74.67
2018-11-20T21:52:11.476Z,74.88
2018-11-20T21:53:11.397Z,74.91
2018-11-20T21:54:11.394Z,74.71
2018-11-20T21:55:11.375Z,74.81
2018-11-20T21:56:11.372Z,74.81
2018-11-20T21:57:11.425Z,74.77
2018-11-20T21:58:11.345Z,74.88
2018-11-20T21:59:11.328Z,74.88
2018-11-20T22:00:11.321Z,74.77
2018-11-20T22:01:11.326Z,74.91
2018-11-20T22:02:11.367Z,74.67
2018-11-20T22:03:11.286Z,74.15
2018-11-20T22:04:11.278Z,74.36
2018-11-20T22:05:11.274Z,74.15
2018-11-20T22:06:11.253Z,74.26
2018-11-20T22:07:11.245Z,74.29
2018-11-20T22:08:11.302Z,74.36
2018-11-20T22:09:11.221Z,74.26
2018-11-20T22:10:11.217Z,74.19
2018-11-20T22:11:11.203Z,74.08
2018-11-20T22:12:12.121Z,74.50
2018-11-20T22:13:11.248Z,74.05
2018-11-20T22:14:11.186Z,74.60
2018-11-20T22:15:11.159Z,74.05
2018-11-20T22:16:11.146Z,73.63
2018-11-20T22:17:11.137Z,74.05
2018-11-20T22:18:11.197Z,74.08
2018-11-20T22:19:11.116Z,74.15
2018-11-20T22:20:11.107Z,74.05
2018-11-20T22:21:11.100Z,74.57
2018-11-20T22:22:11.084Z,74.05
2018-11-20T22:23:11.146Z,74.26
2018-11-20T22:24:11.063Z,74.36
2018-11-20T22:25:11.057Z,73.53
2018-11-20T22:26:11.045Z,74.05
2018-11-20T22:27:11.033Z,74.05
2018-11-20T22:28:11.114Z,74.29
2018-11-20T22:29:11.014Z,74.19
2018-11-20T22:30:11.003Z,74.08
2018-11-20T22:31:10.994Z,73.67
2018-11-20T22:32:10.980Z,73.74
2018-11-20T22:33:11.624Z,73.63
2018-11-20T22:34:11.025Z,74.29
2018-11-20T22:35:10.950Z,74.05
2018-11-20T22:36:10.940Z,74.15
2018-11-20T22:37:10.926Z,74.05
2018-11-20T22:38:10.917Z,74.60
2018-11-20T22:39:10.970Z,74.46
2018-11-20T22:40:10.897Z,74.60
2018-11-20T22:41:10.886Z,74.29
2018-11-20T22:42:10.875Z,74.29
2018-11-20T22:43:10.869Z,74.26
2018-11-20T22:44:10.923Z,74.08
2018-11-20T22:45:10.848Z,74.05
2018-11-20T22:46:10.836Z,73.88
2018-11-20T22:47:10.819Z,73.88
2018-11-20T22:48:10.810Z,73.98
2018-11-20T22:49:10.899Z,74.50
2018-11-20T22:50:10.794Z,73.98
2018-11-20T22:51:10.783Z,74.26
2018-11-20T22:52:10.770Z,73.98
2018-11-20T22:53:10.763Z,74.46
2018-11-20T22:54:11.613Z,74.08
2018-11-20T22:55:10.793Z,74.08
2018-11-20T22:56:10.733Z,74.19
2018-11-20T22:57:10.714Z,74.08
2018-11-20T22:58:10.708Z,73.98
2018-11-20T22:59:10.706Z,74.50
2018-11-20T23:00:10.764Z,74.50
2018-11-20T23:01:10.672Z,75.22
2018-11-20T23:02:10.666Z,74.81
2018-11-20T23:03:10.662Z,74.50
2018-11-20T23:04:11.610Z,74.50
2018-11-20T23:05:10.696Z,74.50
2018-11-20T23:06:10.621Z,74.50
2018-11-20T23:07:10.610Z,74.91
2018-11-20T23:08:10.603Z,74.81
2018-11-20T23:09:10.597Z,74.91
2018-11-20T23:10:10.577Z,75.15
2018-11-20T23:11:10.632Z,75.26
2018-11-20T23:12:10.556Z,75.46
2018-11-20T23:13:10.546Z,75.57
2018-11-20T23:14:10.535Z,75.05
2018-11-20T23:15:11.112Z,75.26
2018-11-20T23:16:10.577Z,75.15
2018-11-20T23:17:10.526Z,75.36
2018-11-20T23:18:10.491Z,75.15
2018-11-20T23:19:10.487Z,75.36
2018-11-20T23:20:10.475Z,75.26
2018-11-20T23:21:10.529Z,75.57
2018-11-20T23:22:10.462Z,75.46
2018-11-20T23:23:10.440Z,75.57
2018-11-20T23:24:10.437Z,75.78
2018-11-20T23:25:10.421Z,75.88
2018-11-20T23:26:10.473Z,75.05
2018-11-20T23:27:11.047Z,75.05
2018-11-20T23:28:10.384Z,75.50
2018-11-20T23:29:10.380Z,75.46
2018-11-20T23:30:10.365Z,75.46
2018-11-20T23:31:10.372Z,75.50
2018-11-20T23:32:10.411Z,75.92
2018-11-20T23:33:10.333Z,75.29
2018-11-20T23:34:10.324Z,75.92
2018-11-20T23:35:10.310Z,75.29
2018-11-20T23:36:11.106Z,75.71
2018-11-20T23:37:10.355Z,75.92
2018-11-20T23:38:10.277Z,76.12
2018-11-20T23:39:10.273Z,75.29
2018-11-20T23:40:10.264Z,75.64
2018-11-20T23:41:10.247Z,76.12
2018-11-20T23:42:10.303Z,76.37
2018-11-20T23:43:10.226Z,76.54
2018-11-20T23:44:10.217Z,76.23
2018-11-20T23:45:10.221Z,76.23
2018-11-20T23:46:10.198Z,76.47
2018-11-20T23:47:10.250Z,76.54
2018-11-20T23:48:10.175Z,76.12
2018-11-20T23:49:15.243Z,75.85
2018-11-20T23:50:10.154Z,76.33
2018-11-20T23:51:10.144Z,76.68
2018-11-20T23:52:10.199Z,76.95
2018-11-20T23:53:10.140Z,76.89
2018-11-20T23:54:10.112Z,77.16
2018-11-20T23:55:10.100Z,76.89
2018-11-20T23:56:10.089Z,76.89
2018-11-20T23:57:10.679Z,76.68
2018-11-20T23:58:10.074Z,76.47
2018-11-20T23:59:10.056Z,77.20
